createdAt,value
2023-05-22T00:02:25.400Z,97566.16
2023-05-22T00:04:53.466Z,97561.81
2023-05-22T00:07:23.180Z,97563.72
2023-05-22T00:09:51.136Z,97563.72
2023-05-22T00:12:19.201Z,97570.28
2023-05-22T00:14:47.484Z,97564.66
2023-05-22T00:17:16.739Z,97565.28
2023-05-22T00:19:46.386Z,97564.78
2023-05-22T00:22:14.765Z,97563.97
2023-05-22T00:24:42.817Z,97563.97
2023-05-22T00:27:10.816Z,97557.22
2023-05-22T00:29:38.959Z,97559.44
2023-05-22T00:32:07.811Z,97555.59
2023-05-22T00:34:36.027Z,97559.44
2023-05-22T00:37:06.093Z,97553.78
2023-05-22T00:39:34.277Z,97553.09
2023-05-22T00:42:02.920Z,97556.09
2023-05-22T00:44:31.362Z,97561.53
2023-05-22T00:47:00.029Z,97558.31
2023-05-22T00:49:28.405Z,97555.41
2023-05-22T00:51:56.451Z,97550.47
2023-05-22T00:54:26.036Z,97551.69
2023-05-22T00:56:54.481Z,97556.31
2023-05-22T00:59:22.814Z,97557.22
2023-05-22T01:01:51.354Z,97560.03
2023-05-22T01:04:20.020Z,97557.97
2023-05-22T01:06:48.924Z,97555.66
2023-05-22T01:09:17.270Z,97562.69
2023-05-22T01:11:57.317Z,97566.00
2023-05-22T01:14:34.982Z,97554.03
2023-05-22T01:17:22.874Z,97559.69
2023-05-22T01:20:07.116Z,97563.19
2023-05-22T01:23:12.150Z,97557.25
2023-05-22T01:26:13.540Z,97570.34
2023-05-22T01:28:57.571Z,97570.63
2023-05-22T01:31:31.118Z,97570.72
2023-05-22T01:34:04.960Z,97571.41
2023-05-22T01:36:36.558Z,97565.81
2023-05-22T01:39:06.547Z,97568.31
2023-05-22T01:41:35.927Z,97570.22
2023-05-22T01:44:04.798Z,97577.63
2023-05-22T01:46:34.627Z,97569.88
2023-05-22T01:49:03.119Z,97582.06
2023-05-22T01:51:40.339Z,97582.66
2023-05-22T01:54:18.331Z,97572.88
2023-05-22T01:56:55.059Z,97576.72
2023-05-22T01:59:31.072Z,97583.03
2023-05-22T02:02:06.337Z,97588.75
2023-05-22T02:04:40.138Z,97583.91
2023-05-22T02:07:11.995Z,97577.16
2023-05-22T02:09:41.618Z,97587.50
2023-05-22T02:12:10.820Z,97585.09
2023-05-22T02:14:39.722Z,97586.72
2023-05-22T02:17:09.419Z,97586.72
2023-05-22T02:19:37.913Z,97588.91
2023-05-22T02:22:06.722Z,97583.78
2023-05-22T02:24:36.966Z,97585.19
2023-05-22T02:27:05.285Z,97588.19
2023-05-22T02:29:33.724Z,97581.72
2023-05-22T02:32:02.053Z,97578.59
2023-05-22T02:34:32.358Z,97583.78
2023-05-22T02:37:00.999Z,97582.19
2023-05-22T02:39:29.261Z,97581.38
2023-05-22T02:41:57.268Z,97584.97
2023-05-22T02:44:25.419Z,97588.34
2023-05-22T02:46:53.435Z,97581.63
2023-05-22T02:49:21.845Z,97582.09
2023-05-22T02:51:51.475Z,97583.44
2023-05-22T02:54:19.453Z,97580.53
2023-05-22T02:56:47.414Z,97580.81
2023-05-22T02:59:16.603Z,97578.09
2023-05-22T03:01:45.273Z,97584.88
2023-05-22T03:04:14.195Z,97580.00
2023-05-22T03:06:45.581Z,97579.47
2023-05-22T03:09:16.140Z,97583.81
2023-05-22T03:11:44.426Z,97581.09
2023-05-22T03:14:12.397Z,97584.09
2023-05-22T03:16:40.488Z,97584.38
2023-05-22T03:19:10.108Z,97590.38
2023-05-22T03:21:38.248Z,97583.63
2023-05-22T03:24:07.212Z,97582.63
2023-05-22T03:26:37.390Z,97582.91
2023-05-22T03:29:05.730Z,97575.78
2023-05-22T03:31:35.155Z,97580.06
2023-05-22T03:34:03.719Z,97582.19
2023-05-22T03:36:34.137Z,97579.47
2023-05-22T03:39:02.562Z,97583.53
2023-05-22T03:41:31.400Z,97590.91
2023-05-22T03:44:01.015Z,97578.50
2023-05-22T03:46:29.556Z,97596.75
2023-05-22T03:48:58.163Z,97594.63
2023-05-22T03:51:26.271Z,97604.09
2023-05-22T03:53:54.446Z,97607.44
2023-05-22T03:56:22.769Z,97612.56
2023-05-22T03:58:51.484Z,97615.81
2023-05-22T04:01:21.139Z,97620.50
2023-05-22T04:03:49.150Z,97618.06
2023-05-22T04:06:17.674Z,97622.16
2023-05-22T04:08:45.735Z,97615.78
2023-05-22T04:11:15.812Z,97614.16
2023-05-22T04:13:43.884Z,97616.50
2023-05-22T04:16:11.949Z,97617.03
2023-05-22T04:18:41.695Z,97617.56
2023-05-22T04:21:10.222Z,97615.88
2023-05-22T04:23:38.752Z,97614.78
2023-05-22T04:26:08.889Z,97615.28
2023-05-22T04:28:38.154Z,97614.72
2023-05-22T04:31:07.750Z,97625.78
2023-05-22T04:33:36.586Z,97618.53
2023-05-22T04:36:09.807Z,97632.66
2023-05-22T04:38:39.245Z,97640.22
2023-05-22T04:41:08.930Z,97626.38
2023-05-22T04:43:38.835Z,97627.09
2023-05-22T04:46:08.453Z,97633.28
2023-05-22T04:48:36.963Z,97633.22
2023-05-22T04:51:07.215Z,97636.44
2023-05-22T04:53:36.117Z,97640.78
2023-05-22T04:56:04.585Z,97635.88
2023-05-22T04:58:32.917Z,97640.78
2023-05-22T05:01:01.541Z,97639.97
2023-05-22T05:03:30.081Z,97643.22
2023-05-22T05:05:59.615Z,97633.66
2023-05-22T05:08:29.411Z,97633.06
2023-05-22T05:10:57.463Z,97638.44
2023-05-22T05:13:25.657Z,97640.03
2023-05-22T05:15:54.259Z,97639.97
2023-05-22T05:18:22.704Z,97637.25
2023-05-22T05:20:50.800Z,97638.06
2023-05-22T05:23:19.063Z,97629.28
2023-05-22T05:25:48.817Z,97639.91
2023-05-22T05:28:17.157Z,97638.06
2023-05-22T05:30:45.390Z,97628.09
2023-05-22T05:33:13.550Z,97637.78
2023-05-22T05:35:43.092Z,97643.34
2023-05-22T05:38:11.412Z,97641.31
2023-05-22T05:40:39.947Z,97651.22
2023-05-22T05:43:09.956Z,97642.97
2023-05-22T05:45:38.234Z,97645.53
2023-05-22T05:48:07.179Z,97641.94
2023-05-22T05:50:35.543Z,97648.78
2023-05-22T05:53:05.099Z,97639.44
2023-05-22T05:55:34.626Z,97648.13
2023-05-22T05:58:03.086Z,97657.78
2023-05-22T06:00:32.878Z,97651.25
2023-05-22T06:03:01.336Z,97647.44
2023-05-22T06:05:30.562Z,97653.81
2023-05-22T06:07:59.043Z,97650.72
2023-05-22T06:10:27.265Z,97651.66
2023-05-22T06:12:55.414Z,97653.47
2023-05-22T06:15:23.403Z,97647.84
2023-05-22T06:17:52.867Z,97654.50
2023-05-22T06:20:20.896Z,97657.81
2023-05-22T06:22:48.882Z,97648.66
2023-05-22T06:25:17.308Z,97657.53
2023-05-22T06:27:45.696Z,97651.88
2023-05-22T06:30:16.830Z,97650.97
2023-05-22T06:32:48.305Z,97642.69
2023-05-22T06:35:18.452Z,97641.19
2023-05-22T06:37:46.742Z,97645.91
2023-05-22T06:40:14.982Z,97649.13
2023-05-22T06:42:44.838Z,97647.16
2023-05-22T06:45:13.467Z,97644.69
2023-05-22T06:47:45.051Z,97638.84
2023-05-22T06:50:13.488Z,97639.22
2023-05-22T06:52:43.433Z,97643.44
2023-05-22T06:55:11.440Z,97647.16
2023-05-22T06:57:39.874Z,97647.03
2023-05-22T07:00:11.640Z,97643.69
2023-05-22T07:02:40.295Z,97651.41
2023-05-22T07:05:09.208Z,97648.13
2023-05-22T07:07:37.218Z,97649.97
2023-05-22T07:10:07.972Z,97647.50
2023-05-22T07:12:36.496Z,97656.25
2023-05-22T07:15:04.933Z,97661.00
2023-05-22T07:17:32.989Z,97664.25
2023-05-22T07:20:00.964Z,97658.41
2023-05-22T07:22:29.031Z,97662.63
2023-05-22T07:24:57.149Z,97662.84
2023-05-22T07:27:26.540Z,97652.53
2023-05-22T07:29:54.653Z,97661.19
2023-05-22T07:32:22.793Z,97660.72
2023-05-22T07:34:51.088Z,97671.19
2023-05-22T07:37:19.350Z,97669.00
2023-05-22T07:39:47.886Z,97661.59
2023-05-22T07:42:15.932Z,97662.31
2023-05-22T07:44:45.451Z,97665.34
2023-05-22T07:47:13.600Z,97671.97
2023-05-22T07:49:41.589Z,97666.91
2023-05-22T07:52:09.734Z,97667.84
2023-05-22T07:54:37.779Z,97669.31
2023-05-22T07:57:08.240Z,97673.59
2023-05-22T07:59:37.794Z,97664.97
2023-05-22T08:02:10.203Z,97672.28
2023-05-22T08:04:38.586Z,97664.03
2023-05-22T08:07:07.010Z,97663.97
2023-05-22T08:09:35.761Z,97664.00
2023-05-22T08:12:03.922Z,97666.06
2023-05-22T08:14:35.547Z,97658.63
2023-05-22T08:17:03.604Z,97659.81
2023-05-22T08:19:33.498Z,97665.13
2023-05-22T08:22:01.586Z,97672.34
2023-05-22T08:24:30.648Z,97663.34
2023-05-22T08:27:00.827Z,97660.13
2023-05-22T08:29:30.113Z,97666.78
2023-05-22T08:31:58.610Z,97667.00
2023-05-22T08:34:27.095Z,97667.13
2023-05-22T08:36:56.484Z,97667.50
2023-05-22T08:39:24.820Z,97659.94
2023-05-22T08:41:53.325Z,97661.09
2023-05-22T08:44:22.114Z,97657.59
2023-05-22T08:46:52.793Z,97658.63
2023-05-22T08:49:24.274Z,97654.13
2023-05-22T08:52:04.450Z,97655.63
2023-05-22T08:54:35.104Z,97661.03
2023-05-22T08:57:03.962Z,97657.59
2023-05-22T08:59:35.465Z,97662.63
2023-05-22T09:02:06.818Z,97663.50
2023-05-22T09:04:35.628Z,97667.63
2023-05-22T09:07:06.809Z,97656.41
2023-05-22T09:09:38.433Z,97659.84
2023-05-22T09:12:09.388Z,97654.22
2023-05-22T09:14:41.074Z,97655.25
2023-05-22T09:17:11.384Z,97658.53
2023-05-22T09:19:44.173Z,97657.19
2023-05-22T09:22:14.685Z,97655.56
2023-05-22T09:24:44.156Z,97666.34
2023-05-22T09:27:13.233Z,97664.38
2023-05-22T09:29:51.465Z,97654.28
2023-05-22T09:32:20.989Z,97659.91
2023-05-22T09:34:49.345Z,97656.00
2023-05-22T09:37:19.409Z,97661.47
2023-05-22T09:39:51.527Z,97663.97
2023-05-22T09:42:19.924Z,97657.38
2023-05-22T09:44:50.334Z,97659.44
2023-05-22T09:47:18.374Z,97659.00
2023-05-22T09:49:47.613Z,97659.88
2023-05-22T09:52:17.579Z,97648.59
2023-05-22T09:54:55.023Z,97643.78
2023-05-22T09:57:25.007Z,97651.50
2023-05-22T09:59:58.140Z,97650.88
2023-05-22T10:02:27.690Z,97647.50
2023-05-22T10:04:55.833Z,97645.44
2023-05-22T10:07:26.026Z,97645.81
2023-05-22T10:10:00.986Z,97642.41
2023-05-22T10:12:33.857Z,97641.25
2023-05-22T10:15:04.030Z,97639.03
2023-05-22T10:17:32.993Z,97644.63
2023-05-22T10:20:01.148Z,97643.91
2023-05-22T10:22:30.971Z,97631.28
2023-05-22T10:25:02.025Z,97634.94
2023-05-22T10:27:30.032Z,97634.72
2023-05-22T10:30:05.225Z,97627.16
2023-05-22T10:32:37.169Z,97633.28
2023-05-22T10:35:18.583Z,97631.72
2023-05-22T10:37:52.042Z,97629.69
2023-05-22T10:40:29.249Z,97622.72
2023-05-22T10:43:01.626Z,97619.41
2023-05-22T10:45:30.442Z,97625.63
2023-05-22T10:48:06.695Z,97621.13
2023-05-22T10:50:35.407Z,97622.28
2023-05-22T10:53:24.526Z,97618.94
2023-05-22T10:55:55.911Z,97615.88
2023-05-22T10:58:28.592Z,97610.78
2023-05-22T11:01:11.004Z,97612.38
2023-05-22T11:03:53.470Z,97616.03
2023-05-22T11:06:38.854Z,97606.78
2023-05-22T11:09:28.125Z,97606.03
2023-05-22T11:12:21.131Z,97607.56
2023-05-22T11:14:51.779Z,97603.81
2023-05-22T11:17:23.265Z,97602.72
2023-05-22T11:20:02.607Z,97601.13
2023-05-22T11:22:32.565Z,97600.78
2023-05-22T11:25:01.063Z,97605.34
2023-05-22T11:27:31.207Z,97594.75
2023-05-22T11:30:01.902Z,97592.78
2023-05-22T11:32:30.466Z,97596.53
2023-05-22T11:34:58.833Z,97585.56
2023-05-22T11:37:26.807Z,97589.81
2023-05-22T11:39:58.051Z,97583.16
2023-05-22T11:42:26.311Z,97572.50
2023-05-22T11:44:56.940Z,97572.31
2023-05-22T11:47:26.711Z,97576.94
2023-05-22T11:49:55.600Z,97572.78
2023-05-22T11:52:24.226Z,97580.38
2023-05-22T11:54:53.873Z,97564.50
2023-05-22T11:57:24.315Z,97556.78
2023-05-22T11:59:52.399Z,97565.25
2023-05-22T12:02:21.975Z,97559.06
2023-05-22T12:04:55.552Z,97551.69
2023-05-22T12:07:24.128Z,97557.03
2023-05-22T12:09:52.381Z,97549.59
2023-05-22T12:12:22.737Z,97549.22
2023-05-22T12:14:51.325Z,97550.03
2023-05-22T12:17:19.586Z,97552.00
2023-05-22T12:19:49.138Z,97557.09
2023-05-22T12:22:17.242Z,97546.13
2023-05-22T12:24:47.158Z,97542.34
2023-05-22T12:27:16.109Z,97542.69
2023-05-22T12:29:44.342Z,97532.50
2023-05-22T12:32:13.561Z,97523.50
2023-05-22T12:34:45.625Z,97526.78
2023-05-22T12:37:22.890Z,97530.81
2023-05-22T12:39:58.220Z,97524.47
2023-05-22T12:42:26.533Z,97527.94
2023-05-22T12:44:55.511Z,97527.66
2023-05-22T12:47:24.575Z,97532.09
2023-05-22T12:49:53.091Z,97530.63
2023-05-22T12:52:22.541Z,97538.22
2023-05-22T12:54:51.972Z,97537.44
2023-05-22T12:57:20.079Z,97534.19
2023-05-22T12:59:48.488Z,97529.84
2023-05-22T13:02:16.955Z,97533.03
2023-05-22T13:04:47.949Z,97542.78
2023-05-22T13:07:16.318Z,97535.28
2023-05-22T13:09:45.888Z,97531.44
2023-05-22T13:12:14.448Z,97523.78
2023-05-22T13:14:42.802Z,97520.16
2023-05-22T13:17:11.148Z,97527.31
2023-05-22T13:19:39.428Z,97517.84
2023-05-22T13:22:09.132Z,97516.28
2023-05-22T13:24:37.405Z,97512.81
2023-05-22T13:27:07.706Z,97521.25
2023-05-22T13:29:36.190Z,97509.66
2023-05-22T13:32:05.236Z,97516.84
2023-05-22T13:34:33.926Z,97512.75
2023-05-22T13:37:02.894Z,97518.31
2023-05-22T13:39:31.313Z,97505.25
2023-05-22T13:41:59.894Z,97515.66
2023-05-22T13:44:30.015Z,97505.03
2023-05-22T13:46:58.585Z,97511.91
2023-05-22T13:49:28.035Z,97506.75
2023-05-22T13:51:56.093Z,97518.16
2023-05-22T13:54:24.181Z,97518.63
2023-05-22T13:56:52.203Z,97524.84
2023-05-22T13:59:20.257Z,97528.75
2023-05-22T14:01:49.867Z,97523.63
2023-05-22T14:04:18.152Z,97518.50
2023-05-22T14:06:46.183Z,97525.97
2023-05-22T14:09:14.172Z,97528.00
2023-05-22T14:11:42.386Z,97514.94
2023-05-22T14:14:10.366Z,97512.56
2023-05-22T14:16:38.436Z,97511.31
2023-05-22T14:19:08.229Z,97506.84
2023-05-22T14:21:36.639Z,97502.91
2023-05-22T14:24:05.382Z,97493.75
2023-05-22T14:26:33.517Z,97493.81
2023-05-22T14:29:01.898Z,97495.81
2023-05-22T14:31:30.408Z,97492.66
2023-05-22T14:33:58.901Z,97502.59
2023-05-22T14:36:28.410Z,97498.94
2023-05-22T14:38:57.696Z,97497.84
2023-05-22T14:41:26.626Z,97504.66
2023-05-22T14:43:55.011Z,97496.31
2023-05-22T14:46:23.317Z,97491.56
2023-05-22T14:49:03.412Z,97490.72
2023-05-22T14:51:32.941Z,97493.75
2023-05-22T14:54:01.283Z,97499.78
2023-05-22T14:56:35.081Z,97494.69
2023-05-22T14:59:03.563Z,97500.38
2023-05-22T15:01:31.667Z,97501.50
2023-05-22T15:04:00.065Z,97507.41
2023-05-22T15:06:28.285Z,97505.38
2023-05-22T15:08:58.148Z,97507.28
2023-05-22T15:11:26.604Z,97498.63
2023-05-22T15:13:55.638Z,97507.03
2023-05-22T15:16:25.705Z,97500.13
2023-05-22T15:18:56.317Z,97492.09
2023-05-22T15:21:25.785Z,97503.44
2023-05-22T15:23:54.262Z,97507.72
2023-05-22T15:26:23.779Z,97509.88
2023-05-22T15:28:51.982Z,97506.69
2023-05-22T15:31:20.307Z,97498.94
2023-05-22T15:33:48.617Z,97486.66
2023-05-22T15:36:18.818Z,97491.59
2023-05-22T15:38:47.161Z,97489.09
2023-05-22T15:41:21.304Z,97482.69
2023-05-22T15:43:52.489Z,97498.47
2023-05-22T15:46:21.890Z,97495.69
2023-05-22T15:48:49.868Z,97498.69
2023-05-22T15:51:18.195Z,97513.53
2023-05-22T15:53:47.045Z,97537.38
2023-05-22T15:56:15.111Z,97551.34
2023-05-22T15:58:43.190Z,97557.72
2023-05-22T16:01:13.629Z,97555.00
2023-05-22T16:03:43.870Z,97553.28
2023-05-22T16:06:11.975Z,97546.63
2023-05-22T16:08:40.434Z,97554.91
2023-05-22T16:11:08.527Z,97543.84
2023-05-22T16:13:36.653Z,97542.22
2023-05-22T16:16:06.199Z,97543.00
2023-05-22T16:18:35.985Z,97532.75
2023-05-22T16:21:04.849Z,97542.03
2023-05-22T16:23:32.964Z,97535.88
2023-05-22T16:26:01.141Z,97529.28
2023-05-22T16:28:29.198Z,97512.13
2023-05-22T16:30:57.186Z,97519.53
2023-05-22T16:33:25.447Z,97532.72
2023-05-22T16:35:55.141Z,97538.78
2023-05-22T16:38:23.080Z,97544.25
2023-05-22T16:40:50.972Z,97529.22
2023-05-22T16:43:18.939Z,97526.22
2023-05-22T16:45:51.095Z,97536.06
2023-05-22T16:48:19.715Z,97532.88
2023-05-22T16:50:47.714Z,97537.13
2023-05-22T16:53:18.034Z,97539.13
2023-05-22T16:55:46.329Z,97539.59
2023-05-22T16:58:14.316Z,97547.47
2023-05-22T17:00:43.339Z,97550.34
2023-05-22T17:03:12.017Z,97553.56
2023-05-22T17:05:40.712Z,97556.56
2023-05-22T17:08:09.091Z,97577.28
2023-05-22T17:10:39.172Z,97589.38
2023-05-22T17:13:10.372Z,97583.56
2023-05-22T17:15:44.229Z,97581.41
2023-05-22T17:18:20.139Z,97589.81
2023-05-22T17:20:48.578Z,97586.94
2023-05-22T17:23:16.948Z,97593.72
2023-05-22T17:25:49.691Z,97600.81
2023-05-22T17:28:20.414Z,97592.44
2023-05-22T17:30:56.552Z,97581.81
2023-05-22T17:33:27.225Z,97586.47
2023-05-22T17:35:55.428Z,97595.97
2023-05-22T17:38:23.416Z,97591.28
2023-05-22T17:40:53.639Z,97600.63
2023-05-22T17:43:21.586Z,97586.47
2023-05-22T17:45:51.056Z,97577.94
2023-05-22T17:48:23.648Z,97581.34
2023-05-22T17:50:52.203Z,97574.28
2023-05-22T17:53:21.145Z,97565.78
2023-05-22T17:55:51.030Z,97556.81
2023-05-22T17:58:21.205Z,97565.03
2023-05-22T18:00:49.950Z,97568.00
2023-05-22T18:03:20.434Z,97569.94
2023-05-22T18:05:48.990Z,97575.56
2023-05-22T18:08:17.435Z,97588.06
2023-05-22T18:10:45.678Z,97599.81
2023-05-22T18:13:13.836Z,97606.41
2023-05-22T18:15:44.962Z,97601.41
2023-05-22T18:18:13.734Z,97615.22
2023-05-22T18:20:41.976Z,97616.44
2023-05-22T18:23:10.343Z,97613.19
2023-05-22T18:25:38.748Z,97611.72
2023-05-22T18:28:08.374Z,97618.63
2023-05-22T18:30:36.802Z,97631.50
2023-05-22T18:33:09.119Z,97644.66
2023-05-22T18:35:37.366Z,97637.94
2023-05-22T18:38:05.383Z,97650.22
2023-05-22T18:40:33.445Z,97650.56
2023-05-22T18:43:01.507Z,97651.53
2023-05-22T18:45:29.557Z,97660.38
2023-05-22T18:47:57.708Z,97639.31
2023-05-22T18:50:27.859Z,97634.50
2023-05-22T18:52:56.559Z,97639.66
2023-05-22T18:55:24.738Z,97634.03
2023-05-22T18:57:53.192Z,97628.88
2023-05-22T19:00:21.383Z,97620.03
2023-05-22T19:02:49.486Z,97623.09
2023-05-22T19:05:17.490Z,97624.22
2023-05-22T19:07:48.369Z,97619.88
2023-05-22T19:10:16.743Z,97618.91
2023-05-22T19:12:45.154Z,97619.91
2023-05-22T19:15:13.317Z,97620.84
2023-05-22T19:17:41.335Z,97620.84
2023-05-22T19:20:10.280Z,97625.81
2023-05-22T19:22:41.460Z,97639.16
2023-05-22T19:25:30.177Z,97639.34
2023-05-22T19:27:58.201Z,97642.56
2023-05-22T19:30:26.264Z,97644.19
2023-05-22T19:32:55.952Z,97639.03
2023-05-22T19:35:24.467Z,97648.34
2023-05-22T19:37:59.988Z,97653.00
2023-05-22T19:40:29.446Z,97657.03
2023-05-22T19:42:57.961Z,97660.09
2023-05-22T19:45:27.687Z,97662.19
2023-05-22T19:47:57.082Z,97658.16
2023-05-22T19:50:26.317Z,97647.56
2023-05-22T19:52:54.625Z,97643.03
2023-05-22T19:55:22.942Z,97645.94
2023-05-22T19:57:57.620Z,97640.13
2023-05-22T20:00:31.078Z,97638.00
2023-05-22T20:02:59.499Z,97647.94
2023-05-22T20:05:27.834Z,97653.91
2023-05-22T20:07:55.991Z,97661.78
2023-05-22T20:10:27.086Z,97660.66
2023-05-22T20:12:59.657Z,97652.78
2023-05-22T20:15:37.681Z,97650.22
2023-05-22T20:18:06.918Z,97641.84
2023-05-22T20:20:38.134Z,97639.56
2023-05-22T20:23:09.560Z,97644.38
2023-05-22T20:25:40.549Z,97650.81
2023-05-22T20:28:13.198Z,97652.59
2023-05-22T20:30:44.237Z,97659.31
2023-05-22T20:33:13.827Z,97676.66
2023-05-22T20:35:43.361Z,97682.75
2023-05-22T20:38:14.518Z,97670.22
2023-05-22T20:40:48.002Z,97688.09
2023-05-22T20:43:22.682Z,97684.56
2023-05-22T20:45:51.234Z,97689.03
2023-05-22T20:48:19.553Z,97685.81
2023-05-22T20:50:50.879Z,97682.44
2023-05-22T20:53:21.971Z,97691.25
2023-05-22T20:55:53.449Z,97701.69
2023-05-22T20:58:26.165Z,97711.81
2023-05-22T21:00:59.719Z,97710.03
2023-05-22T21:03:30.522Z,97717.91
2023-05-22T21:06:01.874Z,97709.03
2023-05-22T21:08:30.177Z,97711.28
2023-05-22T21:11:03.474Z,97702.78
2023-05-22T21:13:33.343Z,97719.31
2023-05-22T21:16:01.984Z,97712.06
2023-05-22T21:18:30.420Z,97713.34
2023-05-22T21:20:58.942Z,97714.94
2023-05-22T21:23:32.215Z,97705.16
2023-05-22T21:26:00.568Z,97713.03
2023-05-22T21:28:30.592Z,97716.72
2023-05-22T21:31:02.522Z,97724.75
2023-05-22T21:33:33.288Z,97719.09
2023-05-22T21:36:06.683Z,97712.84
2023-05-22T21:38:38.103Z,97712.66
2023-05-22T21:41:06.662Z,97714.09
2023-05-22T21:43:37.795Z,97704.91
2023-05-22T21:46:11.440Z,97721.72
2023-05-22T21:48:39.674Z,97724.78
2023-05-22T21:51:07.892Z,97725.88
2023-05-22T21:53:36.093Z,97735.69
2023-05-22T21:56:10.265Z,97737.16
2023-05-22T21:58:40.414Z,97734.25
2023-05-22T22:01:12.894Z,97739.72
2023-05-22T22:03:41.146Z,97747.28
2023-05-22T22:06:10.314Z,97743.75
2023-05-22T22:08:38.439Z,97748.69
2023-05-22T22:11:20.804Z,97752.38
2023-05-22T22:13:49.744Z,97752.19
2023-05-22T22:16:23.963Z,97751.19
2023-05-22T22:18:55.895Z,97750.06
2023-05-22T22:21:37.955Z,97755.97
2023-05-22T22:24:25.236Z,97746.97
2023-05-22T22:27:12.070Z,97749.09
2023-05-22T22:29:43.847Z,97761.41
2023-05-22T22:32:13.871Z,97747.72
2023-05-22T22:34:43.280Z,97750.31
2023-05-22T22:37:11.736Z,97750.31
2023-05-22T22:39:40.041Z,97752.25
2023-05-22T22:42:08.970Z,97753.47
2023-05-22T22:44:40.575Z,97751.56
2023-05-22T22:47:09.857Z,97758.56
2023-05-22T22:49:39.372Z,97744.53
2023-05-22T22:52:07.783Z,97755.63
2023-05-22T22:54:36.042Z,97753.41
2023-05-22T22:57:04.859Z,97746.84
2023-05-22T22:59:35.629Z,97756.03
2023-05-22T23:02:07.611Z,97764.00
2023-05-22T23:04:38.654Z,97763.50
2023-05-22T23:07:12.174Z,97764.66
2023-05-22T23:09:41.085Z,97766.72
2023-05-22T23:12:10.139Z,97768.00
2023-05-22T23:14:39.042Z,97762.97
2023-05-22T23:17:07.829Z,97771.16
2023-05-22T23:19:36.598Z,97761.97
2023-05-22T23:22:08.092Z,97761.38
2023-05-22T23:24:40.548Z,97772.88
2023-05-22T23:27:12.486Z,97766.44
2023-05-22T23:29:44.505Z,97768.34
2023-05-22T23:32:14.689Z,97749.38
2023-05-22T23:34:43.306Z,97756.75
2023-05-22T23:37:11.630Z,97763.81
2023-05-22T23:39:41.095Z,97782.41
2023-05-22T23:42:10.019Z,97792.00
2023-05-22T23:44:38.106Z,97785.72
2023-05-22T23:47:06.909Z,97787.16
2023-05-22T23:49:35.324Z,97777.66
2023-05-22T23:52:03.891Z,97794.22
2023-05-22T23:54:31.942Z,97790.38
2023-05-22T23:57:01.601Z,97794.50
2023-05-22T23:59:31.371Z,97787.75
